sensor_id;sensor_type;location;lat;lon;timestamp;P1;durP1;ratioP1;P2;durP2;ratioP2
37284;SDS011;23172;53.550;9.964;2023-05-10T00:02:05;24.10;;;22.80;;
37284;SDS011;23172;53.550;9.964;2023-05-10T00:07:07;23.13;;;21.98;;
37284;SDS011;23172;53.550;9.964;2023-05-10T00:12:10;21.77;;;20.70;;
37284;SDS011;23172;53.550;9.964;2023-05-10T00:17:13;20.88;;;19.77;;
37284;SDS011;23172;53.550;9.964;2023-05-10T00:22:15;20.08;;;19.02;;
37284;SDS011;23172;53.550;9.964;2023-05-10T00:27:17;20.60;;;19.40;;
37284;SDS011;23172;53.550;9.964;2023-05-10T00:32:20;18.92;;;17.73;;
37284;SDS011;23172;53.550;9.964;2023-05-10T00:37:22;16.75;;;15.88;;
37284;SDS011;23172;53.550;9.964;2023-05-10T00:42:24;15.70;;;14.82;;
37284;SDS011;23172;53.550;9.964;2023-05-10T00:47:27;15.88;;;14.93;;
37284;SDS011;23172;53.550;9.964;2023-05-10T00:52:29;14.32;;;13.48;;
37284;SDS011;23172;53.550;9.964;2023-05-10T00:57:31;12.80;;;12.02;;
37284;SDS011;23172;53.550;9.964;2023-05-10T01:02:35;13.48;;;12.77;;
37284;SDS011;23172;53.550;9.964;2023-05-10T01:07:37;11.57;;;10.60;;
37284;SDS011;23172;53.550;9.964;2023-05-10T01:12:39;8.65;;;8.15;;
37284;SDS011;23172;53.550;9.964;2023-05-10T01:17:45;7.22;;;6.82;;
37284;SDS011;23172;53.550;9.964;2023-05-10T01:28:39;12.23;;;11.63;;
37284;SDS011;23172;53.550;9.964;2023-05-10T01:33:54;14.43;;;13.63;;
37284;SDS011;23172;53.550;9.964;2023-05-10T01:39:01;14.10;;;13.20;;
37284;SDS011;23172;53.550;9.964;2023-05-10T01:44:10;12.43;;;11.77;;
37284;SDS011;23172;53.550;9.964;2023-05-10T01:49:21;11.43;;;10.57;;
37284;SDS011;23172;53.550;9.964;2023-05-10T01:54:26;11.25;;;10.65;;
37284;SDS011;23172;53.550;9.964;2023-05-10T01:59:30;9.57;;;8.88;;
37284;SDS011;23172;53.550;9.964;2023-05-10T02:04:40;8.27;;;7.82;;
37284;SDS011;23172;53.550;9.964;2023-05-10T02:09:44;8.55;;;7.88;;
37284;SDS011;23172;53.550;9.964;2023-05-10T02:14:48;8.00;;;7.55;;
37284;SDS011;23172;53.550;9.964;2023-05-10T02:19:54;8.13;;;7.45;;
37284;SDS011;23172;53.550;9.964;2023-05-10T02:24:57;8.02;;;7.38;;
37284;SDS011;23172;53.550;9.964;2023-05-10T02:30:01;9.05;;;8.43;;
37284;SDS011;23172;53.550;9.964;2023-05-10T02:35:05;6.90;;;6.50;;
37284;SDS011;23172;53.550;9.964;2023-05-10T02:40:08;6.97;;;6.47;;
37284;SDS011;23172;53.550;9.964;2023-05-10T02:45:12;6.85;;;6.35;;
37284;SDS011;23172;53.550;9.964;2023-05-10T02:50:18;8.05;;;7.35;;
37284;SDS011;23172;53.550;9.964;2023-05-10T02:55:21;7.15;;;6.55;;
37284;SDS011;23172;53.550;9.964;2023-05-10T03:00:26;7.47;;;6.97;;
37284;SDS011;23172;53.550;9.964;2023-05-10T03:05:30;6.93;;;6.43;;
37284;SDS011;23172;53.550;9.964;2023-05-10T03:10:32;6.22;;;5.63;;
37284;SDS011;23172;53.550;9.964;2023-05-10T03:15:42;7.32;;;6.90;;
37284;SDS011;23172;53.550;9.964;2023-05-10T03:20:55;7.65;;;7.05;;
37284;SDS011;23172;53.550;9.964;2023-05-10T03:26:02;7.25;;;6.65;;
37284;SDS011;23172;53.550;9.964;2023-05-10T03:31:05;7.57;;;7.13;;
37284;SDS011;23172;53.550;9.964;2023-05-10T03:36:09;7.40;;;6.80;;
37284;SDS011;23172;53.550;9.964;2023-05-10T03:41:11;7.45;;;6.95;;
37284;SDS011;23172;53.550;9.964;2023-05-10T03:46:13;6.53;;;6.03;;
37284;SDS011;23172;53.550;9.964;2023-05-10T03:51:17;7.10;;;6.60;;
37284;SDS011;23172;53.550;9.964;2023-05-10T03:56:19;7.07;;;6.38;;
37284;SDS011;23172;53.550;9.964;2023-05-10T04:01:21;5.85;;;5.45;;
37284;SDS011;23172;53.550;9.964;2023-05-10T04:06:24;7.15;;;6.60;;
37284;SDS011;23172;53.550;9.964;2023-05-10T04:11:26;8.07;;;7.32;;
37284;SDS011;23172;53.550;9.964;2023-05-10T04:16:28;7.10;;;6.43;;
37284;SDS011;23172;53.550;9.964;2023-05-10T04:21:31;7.35;;;6.70;;
37284;SDS011;23172;53.550;9.964;2023-05-10T04:26:33;6.88;;;5.88;;
37284;SDS011;23172;53.550;9.964;2023-05-10T04:31:35;7.38;;;6.88;;
37284;SDS011;23172;53.550;9.964;2023-05-10T04:36:38;6.90;;;6.50;;
37284;SDS011;23172;53.550;9.964;2023-05-10T04:41:40;6.20;;;5.63;;
37284;SDS011;23172;53.550;9.964;2023-05-10T04:46:42;6.78;;;6.18;;
37284;SDS011;23172;53.550;9.964;2023-05-10T04:51:45;7.15;;;6.50;;
37284;SDS011;23172;53.550;9.964;2023-05-10T04:56:47;7.90;;;7.10;;
37284;SDS011;23172;53.550;9.964;2023-05-10T05:01:49;6.32;;;5.82;;
37284;SDS011;23172;53.550;9.964;2023-05-10T05:06:52;7.25;;;6.75;;
37284;SDS011;23172;53.550;9.964;2023-05-10T05:11:54;7.68;;;6.97;;
37284;SDS011;23172;53.550;9.964;2023-05-10T05:16:56;7.88;;;7.15;;
37284;SDS011;23172;53.550;9.964;2023-05-10T05:21:59;7.90;;;7.10;;
37284;SDS011;23172;53.550;9.964;2023-05-10T05:27:01;7.63;;;7.10;;
37284;SDS011;23172;53.550;9.964;2023-05-10T05:32:03;8.65;;;7.85;;
37284;SDS011;23172;53.550;9.964;2023-05-10T05:37:07;8.18;;;7.40;;
37284;SDS011;23172;53.550;9.964;2023-05-10T05:42:13;7.80;;;7.10;;
37284;SDS011;23172;53.550;9.964;2023-05-10T05:47:16;9.98;;;9.23;;
37284;SDS011;23172;53.550;9.964;2023-05-10T05:52:19;8.90;;;8.18;;
37284;SDS011;23172;53.550;9.964;2023-05-10T05:57:21;10.43;;;9.63;;
37284;SDS011;23172;53.550;9.964;2023-05-10T06:02:23;8.90;;;8.27;;
37284;SDS011;23172;53.550;9.964;2023-05-10T06:07:27;10.95;;;10.10;;
37284;SDS011;23172;53.550;9.964;2023-05-10T06:12:28;10.45;;;9.65;;
37284;SDS011;23172;53.550;9.964;2023-05-10T06:17:30;11.35;;;10.52;;
37284;SDS011;23172;53.550;9.964;2023-05-10T06:22:33;11.40;;;10.48;;
37284;SDS011;23172;53.550;9.964;2023-05-10T06:27:35;6.80;;;6.30;;
37284;SDS011;23172;53.550;9.964;2023-05-10T06:32:37;20.67;;;19.48;;
37284;SDS011;23172;53.550;9.964;2023-05-10T06:37:40;7.95;;;7.35;;
37284;SDS011;23172;53.550;9.964;2023-05-10T06:42:42;6.38;;;5.82;;
37284;SDS011;23172;53.550;9.964;2023-05-10T06:47:44;6.70;;;6.15;;
37284;SDS011;23172;53.550;9.964;2023-05-10T06:52:48;16.48;;;15.65;;
37284;SDS011;23172;53.550;9.964;2023-05-10T06:57:49;21.42;;;20.35;;
37284;SDS011;23172;53.550;9.964;2023-05-10T07:02:51;22.52;;;21.52;;
37284;SDS011;23172;53.550;9.964;2023-05-10T07:07:54;38.47;;;36.88;;
37284;SDS011;23172;53.550;9.964;2023-05-10T07:12:56;43.58;;;41.28;;
37284;SDS011;23172;53.550;9.964;2023-05-10T07:17:58;54.40;;;52.15;;
37284;SDS011;23172;53.550;9.964;2023-05-10T07:23:01;51.53;;;49.38;;
37284;SDS011;23172;53.550;9.964;2023-05-10T07:28:03;53.03;;;50.92;;
37284;SDS011;23172;53.550;9.964;2023-05-10T07:33:05;47.75;;;45.80;;
37284;SDS011;23172;53.550;9.964;2023-05-10T07:38:09;92.40;;;88.53;;
37284;SDS011;23172;53.550;9.964;2023-05-10T07:43:12;10.68;;;10.07;;
37284;SDS011;23172;53.550;9.964;2023-05-10T07:48:13;9.93;;;9.32;;
37284;SDS011;23172;53.550;9.964;2023-05-10T07:53:17;12.43;;;11.60;;
37284;SDS011;23172;53.550;9.964;2023-05-10T07:58:19;11.60;;;10.52;;
37284;SDS011;23172;53.550;9.964;2023-05-10T08:03:21;9.43;;;8.82;;
37284;SDS011;23172;53.550;9.964;2023-05-10T08:08:24;15.48;;;14.68;;
37284;SDS011;23172;53.550;9.964;2023-05-10T08:13:26;11.73;;;11.02;;
37284;SDS011;23172;53.550;9.964;2023-05-10T08:18:28;10.50;;;9.82;;
37284;SDS011;23172;53.550;9.964;2023-05-10T08:23:31;13.15;;;12.43;;
37284;SDS011;23172;53.550;9.964;2023-05-10T08:28:33;12.18;;;11.45;;
37284;SDS011;23172;53.550;9.964;2023-05-10T08:33:35;11.90;;;11.10;;
37284;SDS011;23172;53.550;9.964;2023-05-10T08:38:38;15.13;;;14.43;;
37284;SDS011;23172;53.550;9.964;2023-05-10T08:43:40;19.67;;;18.48;;
37284;SDS011;23172;53.550;9.964;2023-05-10T08:48:46;18.00;;;17.20;;
37284;SDS011;23172;53.550;9.964;2023-05-10T08:53:50;17.25;;;16.25;;
37284;SDS011;23172;53.550;9.964;2023-05-10T08:58:52;25.90;;;24.35;;
37284;SDS011;23172;53.550;9.964;2023-05-10T09:03:55;24.75;;;23.25;;
37284;SDS011;23172;53.550;9.964;2023-05-10T09:08:59;33.58;;;31.95;;
37284;SDS011;23172;53.550;9.964;2023-05-10T09:14:03;19.13;;;17.98;;
37284;SDS011;23172;53.550;9.964;2023-05-10T09:19:05;44.63;;;42.58;;
37284;SDS011;23172;53.550;9.964;2023-05-10T09:24:09;27.15;;;25.73;;
37284;SDS011;23172;53.550;9.964;2023-05-10T09:29:11;31.42;;;29.80;;
37284;SDS011;23172;53.550;9.964;2023-05-10T09:34:17;28.48;;;27.08;;
37284;SDS011;23172;53.550;9.964;2023-05-10T09:39:21;18.95;;;17.83;;
37284;SDS011;23172;53.550;9.964;2023-05-10T09:44:31;24.98;;;23.67;;
37284;SDS011;23172;53.550;9.964;2023-05-10T09:49:34;20.15;;;18.88;;
37284;SDS011;23172;53.550;9.964;2023-05-10T09:54:37;20.90;;;19.88;;
37284;SDS011;23172;53.550;9.964;2023-05-10T09:59:46;22.95;;;21.65;;
37284;SDS011;23172;53.550;9.964;2023-05-10T10:04:49;23.48;;;21.85;;
37284;SDS011;23172;53.550;9.964;2023-05-10T10:09:53;21.48;;;20.20;;
37284;SDS011;23172;53.550;9.964;2023-05-10T10:14:56;17.55;;;16.50;;
37284;SDS011;23172;53.550;9.964;2023-05-10T10:20:02;16.58;;;15.57;;
37284;SDS011;23172;53.550;9.964;2023-05-10T10:25:06;14.85;;;13.70;;
37284;SDS011;23172;53.550;9.964;2023-05-10T10:30:12;14.07;;;13.00;;
37284;SDS011;23172;53.550;9.964;2023-05-10T10:35:19;11.73;;;10.93;;
37284;SDS011;23172;53.550;9.964;2023-05-10T10:40:24;11.73;;;10.85;;
37284;SDS011;23172;53.550;9.964;2023-05-10T10:45:27;14.02;;;13.13;;
37284;SDS011;23172;53.550;9.964;2023-05-10T10:50:28;11.48;;;10.73;;
37284;SDS011;23172;53.550;9.964;2023-05-10T10:55:32;11.23;;;10.60;;
37284;SDS011;23172;53.550;9.964;2023-05-10T11:00:34;17.63;;;16.10;;
37284;SDS011;23172;53.550;9.964;2023-05-10T11:05:38;11.30;;;10.40;;
37284;SDS011;23172;53.550;9.964;2023-05-10T11:10:52;10.48;;;9.82;;
37284;SDS011;23172;53.550;9.964;2023-05-10T11:16:14;10.98;;;10.27;;
37284;SDS011;23172;53.550;9.964;2023-05-10T11:21:18;12.02;;;11.25;;
37284;SDS011;23172;53.550;9.964;2023-05-10T11:26:22;11.73;;;11.02;;
37284;SDS011;23172;53.550;9.964;2023-05-10T11:31:25;15.90;;;14.90;;
37284;SDS011;23172;53.550;9.964;2023-05-10T11:36:28;11.35;;;10.55;;
37284;SDS011;23172;53.550;9.964;2023-05-10T11:41:34;15.60;;;14.55;;
37284;SDS011;23172;53.550;9.964;2023-05-10T11:46:36;17.85;;;16.77;;
37284;SDS011;23172;53.550;9.964;2023-05-10T11:51:38;13.30;;;12.50;;
37284;SDS011;23172;53.550;9.964;2023-05-10T11:56:43;13.02;;;12.25;;
37284;SDS011;23172;53.550;9.964;2023-05-10T12:01:45;10.73;;;10.02;;
37284;SDS011;23172;53.550;9.964;2023-05-10T12:06:47;9.82;;;9.10;;
37284;SDS011;23172;53.550;9.964;2023-05-10T12:11:50;10.80;;;9.85;;
37284;SDS011;23172;53.550;9.964;2023-05-10T12:16:57;9.70;;;8.70;;
37284;SDS011;23172;53.550;9.964;2023-05-10T12:21:59;8.80;;;8.10;;
37284;SDS011;23172;53.550;9.964;2023-05-10T12:27:05;10.35;;;9.55;;
37284;SDS011;23172;53.550;9.964;2023-05-10T12:32:09;9.90;;;9.10;;
37284;SDS011;23172;53.550;9.964;2023-05-10T12:37:11;9.20;;;8.40;;
37284;SDS011;23172;53.550;9.964;2023-05-10T12:42:15;8.80;;;7.47;;
37284;SDS011;23172;53.550;9.964;2023-05-10T12:47:18;7.95;;;7.20;;
37284;SDS011;23172;53.550;9.964;2023-05-10T12:52:20;8.45;;;7.85;;
37284;SDS011;23172;53.550;9.964;2023-05-10T12:57:23;7.72;;;7.25;;
37284;SDS011;23172;53.550;9.964;2023-05-10T13:02:25;9.43;;;8.73;;
37284;SDS011;23172;53.550;9.964;2023-05-10T13:07:26;12.82;;;11.95;;
37284;SDS011;23172;53.550;9.964;2023-05-10T13:12:29;9.68;;;9.07;;
37284;SDS011;23172;53.550;9.964;2023-05-10T13:17:31;9.65;;;8.95;;
37284;SDS011;23172;53.550;9.964;2023-05-10T13:22:33;7.85;;;7.35;;
37284;SDS011;23172;53.550;9.964;2023-05-10T13:27:36;8.93;;;8.23;;
37284;SDS011;23172;53.550;9.964;2023-05-10T13:32:38;8.13;;;7.63;;
37284;SDS011;23172;53.550;9.964;2023-05-10T13:37:40;8.30;;;7.72;;
37284;SDS011;23172;53.550;9.964;2023-05-10T13:42:43;8.77;;;8.18;;
37284;SDS011;23172;53.550;9.964;2023-05-10T13:47:46;7.90;;;7.40;;
37284;SDS011;23172;53.550;9.964;2023-05-10T13:52:47;7.95;;;7.35;;
37284;SDS011;23172;53.550;9.964;2023-05-10T13:57:51;7.97;;;7.28;;
37284;SDS011;23172;53.550;9.964;2023-05-10T14:02:53;7.80;;;7.18;;
37284;SDS011;23172;53.550;9.964;2023-05-10T14:07:55;8.18;;;7.53;;
37284;SDS011;23172;53.550;9.964;2023-05-10T14:12:58;9.80;;;9.13;;
37284;SDS011;23172;53.550;9.964;2023-05-10T14:18:00;11.10;;;10.45;;
37284;SDS011;23172;53.550;9.964;2023-05-10T14:23:02;10.00;;;9.45;;
37284;SDS011;23172;53.550;9.964;2023-05-10T14:28:05;11.07;;;10.48;;
37284;SDS011;23172;53.550;9.964;2023-05-10T14:33:07;10.93;;;10.27;;
37284;SDS011;23172;53.550;9.964;2023-05-10T14:38:09;9.50;;;8.90;;
37284;SDS011;23172;53.550;9.964;2023-05-10T14:43:13;9.60;;;8.90;;
37284;SDS011;23172;53.550;9.964;2023-05-10T14:48:15;8.15;;;7.32;;
37284;SDS011;23172;53.550;9.964;2023-05-10T14:53:17;7.30;;;6.80;;
37284;SDS011;23172;53.550;9.964;2023-05-10T14:58:20;7.32;;;6.82;;
37284;SDS011;23172;53.550;9.964;2023-05-10T15:03:22;6.38;;;5.88;;
37284;SDS011;23172;53.550;9.964;2023-05-10T15:08:24;8.48;;;7.88;;
37284;SDS011;23172;53.550;9.964;2023-05-10T15:13:28;7.75;;;7.05;;
37284;SDS011;23172;53.550;9.964;2023-05-10T15:18:30;6.88;;;6.38;;
37284;SDS011;23172;53.550;9.964;2023-05-10T15:23:31;6.03;;;5.55;;
37284;SDS011;23172;53.550;9.964;2023-05-10T15:28:35;7.93;;;7.32;;
37284;SDS011;23172;53.550;9.964;2023-05-10T15:33:37;6.57;;;6.18;;
37284;SDS011;23172;53.550;9.964;2023-05-10T15:38:39;7.53;;;6.93;;
37284;SDS011;23172;53.550;9.964;2023-05-10T15:43:42;5.32;;;4.88;;
37284;SDS011;23172;53.550;9.964;2023-05-10T15:48:44;5.35;;;4.95;;
37284;SDS011;23172;53.550;9.964;2023-05-10T15:53:46;5.85;;;5.35;;
37284;SDS011;23172;53.550;9.964;2023-05-10T15:58:49;4.60;;;4.00;;
37284;SDS011;23172;53.550;9.964;2023-05-10T16:03:51;8.63;;;7.93;;
37284;SDS011;23172;53.550;9.964;2023-05-10T16:08:53;9.20;;;8.52;;
37284;SDS011;23172;53.550;9.964;2023-05-10T16:13:56;8.75;;;8.25;;
37284;SDS011;23172;53.550;9.964;2023-05-10T16:18:58;11.52;;;10.90;;
37284;SDS011;23172;53.550;9.964;2023-05-10T16:24:02;10.57;;;9.88;;
37284;SDS011;23172;53.550;9.964;2023-05-10T16:29:06;8.80;;;8.30;;
37284;SDS011;23172;53.550;9.964;2023-05-10T16:34:08;6.65;;;6.25;;
37284;SDS011;23172;53.550;9.964;2023-05-10T16:39:10;6.95;;;6.55;;
37284;SDS011;23172;53.550;9.964;2023-05-10T16:44:14;7.57;;;7.07;;
37284;SDS011;23172;53.550;9.964;2023-05-10T16:49:16;15.40;;;14.52;;
37284;SDS011;23172;53.550;9.964;2023-05-10T16:54:18;5.43;;;5.10;;
37284;SDS011;23172;53.550;9.964;2023-05-10T16:59:22;4.35;;;4.05;;
37284;SDS011;23172;53.550;9.964;2023-05-10T17:04:24;5.38;;;4.95;;
37284;SDS011;23172;53.550;9.964;2023-05-10T17:09:26;9.23;;;8.52;;
37284;SDS011;23172;53.550;9.964;2023-05-10T17:14:30;10.48;;;9.77;;
37284;SDS011;23172;53.550;9.964;2023-05-10T17:19:32;8.10;;;7.57;;
37284;SDS011;23172;53.550;9.964;2023-05-10T17:24:34;18.17;;;17.23;;
37284;SDS011;23172;53.550;9.964;2023-05-10T17:29:38;18.15;;;17.20;;
37284;SDS011;23172;53.550;9.964;2023-05-10T17:34:40;18.13;;;17.20;;
37284;SDS011;23172;53.550;9.964;2023-05-10T17:39:43;19.77;;;18.90;;
37284;SDS011;23172;53.550;9.964;2023-05-10T17:44:47;18.42;;;17.55;;
37284;SDS011;23172;53.550;9.964;2023-05-10T17:49:49;22.55;;;21.38;;
37284;SDS011;23172;53.550;9.964;2023-05-10T17:54:51;25.75;;;24.42;;
37284;SDS011;23172;53.550;9.964;2023-05-10T17:59:55;18.23;;;17.27;;
37284;SDS011;23172;53.550;9.964;2023-05-10T18:04:57;9.73;;;9.23;;
37284;SDS011;23172;53.550;9.964;2023-05-10T18:10:00;12.73;;;12.07;;
37284;SDS011;23172;53.550;9.964;2023-05-10T18:15:04;11.60;;;10.93;;
37284;SDS011;23172;53.550;9.964;2023-05-10T18:20:07;11.48;;;10.85;;
37284;SDS011;23172;53.550;9.964;2023-05-10T18:25:09;12.45;;;11.75;;
37284;SDS011;23172;53.550;9.964;2023-05-10T18:30:13;16.77;;;15.60;;
37284;SDS011;23172;53.550;9.964;2023-05-10T18:35:16;14.20;;;13.40;;
37284;SDS011;23172;53.550;9.964;2023-05-10T18:40:19;16.40;;;15.57;;
37284;SDS011;23172;53.550;9.964;2023-05-10T18:45:22;17.10;;;16.25;;
37284;SDS011;23172;53.550;9.964;2023-05-10T18:50:24;24.08;;;22.88;;
37284;SDS011;23172;53.550;9.964;2023-05-10T18:55:27;17.88;;;16.98;;
37284;SDS011;23172;53.550;9.964;2023-05-10T19:00:30;18.67;;;17.63;;
37284;SDS011;23172;53.550;9.964;2023-05-10T19:05:32;15.85;;;14.95;;
37284;SDS011;23172;53.550;9.964;2023-05-10T19:10:35;22.42;;;21.38;;
37284;SDS011;23172;53.550;9.964;2023-05-10T19:15:38;17.77;;;16.90;;
37284;SDS011;23172;53.550;9.964;2023-05-10T19:20:40;17.25;;;16.50;;
37284;SDS011;23172;53.550;9.964;2023-05-10T19:25:42;16.65;;;15.95;;
37284;SDS011;23172;53.550;9.964;2023-05-10T19:30:46;16.23;;;15.48;;
37284;SDS011;23172;53.550;9.964;2023-05-10T19:35:49;16.15;;;15.43;;
37284;SDS011;23172;53.550;9.964;2023-05-10T19:40:53;17.05;;;16.25;;
37284;SDS011;23172;53.550;9.964;2023-05-10T19:45:58;11.32;;;10.77;;
37284;SDS011;23172;53.550;9.964;2023-05-10T19:51:01;11.73;;;11.23;;
37284;SDS011;23172;53.550;9.964;2023-05-10T19:56:03;14.60;;;13.95;;
37284;SDS011;23172;53.550;9.964;2023-05-10T20:01:07;12.10;;;11.60;;
37284;SDS011;23172;53.550;9.964;2023-05-10T20:06:12;14.63;;;13.93;;
37284;SDS011;23172;53.550;9.964;2023-05-10T20:11:14;12.70;;;12.15;;
37284;SDS011;23172;53.550;9.964;2023-05-10T20:16:17;10.88;;;10.27;;
37284;SDS011;23172;53.550;9.964;2023-05-10T20:21:19;8.73;;;8.27;;
37284;SDS011;23172;53.550;9.964;2023-05-10T20:26:24;8.05;;;7.55;;
37284;SDS011;23172;53.550;9.964;2023-05-10T20:31:27;7.15;;;6.75;;
37284;SDS011;23172;53.550;9.964;2023-05-10T20:36:29;7.03;;;6.63;;
37284;SDS011;23172;53.550;9.964;2023-05-10T20:41:32;7.15;;;6.65;;
37284;SDS011;23172;53.550;9.964;2023-05-10T20:46:35;7.88;;;7.35;;
37284;SDS011;23172;53.550;9.964;2023-05-10T20:51:37;19.15;;;17.30;;
37284;SDS011;23172;53.550;9.964;2023-05-10T20:56:39;8.50;;;8.00;;
37284;SDS011;23172;53.550;9.964;2023-05-10T21:01:43;6.97;;;6.47;;
37284;SDS011;23172;53.550;9.964;2023-05-10T21:06:45;10.20;;;9.30;;
37284;SDS011;23172;53.550;9.964;2023-05-10T21:11:47;9.15;;;8.35;;
37284;SDS011;23172;53.550;9.964;2023-05-10T21:16:51;10.68;;;9.88;;
37284;SDS011;23172;53.550;9.964;2023-05-10T21:21:53;6.88;;;6.38;;
37284;SDS011;23172;53.550;9.964;2023-05-10T21:26:58;8.90;;;8.10;;
37284;SDS011;23172;53.550;9.964;2023-05-10T21:32:01;8.23;;;7.63;;
37284;SDS011;23172;53.550;9.964;2023-05-10T21:37:03;14.13;;;13.23;;
37284;SDS011;23172;53.550;9.964;2023-05-10T21:42:05;13.57;;;12.68;;
37284;SDS011;23172;53.550;9.964;2023-05-10T21:47:09;10.35;;;9.35;;
37284;SDS011;23172;53.550;9.964;2023-05-10T21:52:11;9.00;;;8.20;;
37284;SDS011;23172;53.550;9.964;2023-05-10T21:57:14;7.57;;;6.88;;
37284;SDS011;23172;53.550;9.964;2023-05-10T22:02:17;12.10;;;10.90;;
37284;SDS011;23172;53.550;9.964;2023-05-10T22:07:20;18.35;;;16.67;;
37284;SDS011;23172;53.550;9.964;2023-05-10T22:12:22;13.63;;;12.73;;
37284;SDS011;23172;53.550;9.964;2023-05-10T22:17:26;7.75;;;7.05;;
37284;SDS011;23172;53.550;9.964;2023-05-10T22:22:28;11.95;;;11.05;;
37284;SDS011;23172;53.550;9.964;2023-05-10T22:27:30;8.57;;;7.78;;
37284;SDS011;23172;53.550;9.964;2023-05-10T22:32:34;8.25;;;7.43;;
37284;SDS011;23172;53.550;9.964;2023-05-10T22:37:36;12.18;;;11.07;;
37284;SDS011;23172;53.550;9.964;2023-05-10T22:42:38;9.13;;;8.18;;
37284;SDS011;23172;53.550;9.964;2023-05-10T22:47:42;12.57;;;11.57;;
37284;SDS011;23172;53.550;9.964;2023-05-10T22:52:46;10.43;;;9.35;;
37284;SDS011;23172;53.550;9.964;2023-05-10T22:57:49;14.70;;;11.35;;
37284;SDS011;23172;53.550;9.964;2023-05-10T23:02:52;20.05;;;18.75;;
37284;SDS011;23172;53.550;9.964;2023-05-10T23:07:55;16.20;;;15.05;;
37284;SDS011;23172;53.550;9.964;2023-05-10T23:12:57;22.30;;;20.67;;
37284;SDS011;23172;53.550;9.964;2023-05-10T23:18:01;22.20;;;20.60;;
37284;SDS011;23172;53.550;9.964;2023-05-10T23:23:04;19.48;;;18.15;;
37284;SDS011;23172;53.550;9.964;2023-05-10T23:28:06;19.55;;;17.98;;
37284;SDS011;23172;53.550;9.964;2023-05-10T23:33:10;17.40;;;15.90;;
37284;SDS011;23172;53.550;9.964;2023-05-10T23:38:13;22.45;;;20.40;;
37284;SDS011;23172;53.550;9.964;2023-05-10T23:43:15;20.98;;;19.02;;
37284;SDS011;23172;53.550;9.964;2023-05-10T23:48:20;22.27;;;19.95;;
37284;SDS011;23172;53.550;9.964;2023-05-10T23:53:22;20.73;;;18.42;;
37284;SDS011;23172;53.550;9.964;2023-05-10T23:58:24;18.98;;;17.27;;
